createdAt,value
2017-11-30T00:01:56.219Z,52.10
2017-11-30T00:04:23.667Z,49.30
2017-11-30T00:06:51.117Z,49.47
2017-11-30T00:09:18.562Z,41.23
2017-11-30T00:11:46.019Z,44.83
2017-11-30T00:14:13.648Z,43.67
2017-11-30T00:16:41.072Z,43.63
2017-11-30T00:19:08.508Z,49.73
2017-11-30T00:21:35.963Z,46.37
2017-11-30T00:24:03.403Z,49.00
2017-11-30T00:26:30.838Z,46.93
2017-11-30T00:28:58.706Z,46.63
2017-11-30T00:31:26.542Z,45.63
2017-11-30T00:33:53.975Z,46.57
2017-11-30T00:36:21.447Z,45.20
2017-11-30T00:38:48.887Z,43.90
2017-11-30T00:41:16.329Z,47.63
2017-11-30T00:43:43.796Z,47.00
2017-11-30T00:46:11.220Z,45.20
2017-11-30T00:48:39.040Z,47.50
2017-11-30T00:51:06.652Z,57.80
2017-11-30T00:53:34.094Z,48.90
2017-11-30T00:56:01.543Z,45.63
2017-11-30T00:58:29.069Z,44.47
2017-11-30T01:00:56.921Z,49.80
2017-11-30T01:03:24.367Z,48.17
2017-11-30T01:05:52.001Z,50.03
2017-11-30T01:08:19.450Z,42.60
2017-11-30T01:10:46.908Z,48.17
2017-11-30T01:13:14.388Z,45.67
2017-11-30T01:15:41.839Z,47.70
2017-11-30T01:18:09.322Z,47.90
2017-11-30T01:20:37.179Z,48.33
2017-11-30T01:23:04.613Z,47.07
2017-11-30T01:25:32.075Z,52.57
2017-11-30T01:27:59.527Z,48.33
2017-11-30T01:30:27.018Z,44.83
2017-11-30T01:32:54.856Z,55.13
2017-11-30T01:35:22.307Z,46.57
2017-11-30T01:37:49.755Z,48.90
2017-11-30T01:40:17.214Z,46.23
2017-11-30T01:42:44.672Z,53.23
2017-11-30T01:45:12.122Z,51.87
2017-11-30T01:47:39.742Z,52.53
2017-11-30T01:50:07.282Z,47.87
2017-11-30T01:52:34.731Z,46.57
2017-11-30T01:55:02.597Z,47.00
2017-11-30T01:57:30.460Z,47.80
2017-11-30T01:59:58.308Z,46.43
2017-11-30T02:02:25.795Z,52.83
2017-11-30T02:04:53.241Z,48.80
2017-11-30T02:07:21.120Z,45.00
2017-11-30T02:09:48.595Z,49.40
2017-11-30T02:12:16.038Z,56.10
2017-11-30T02:14:43.515Z,49.80
2017-11-30T02:17:10.997Z,50.10
2017-11-30T02:19:38.461Z,50.57
2017-11-30T02:22:05.899Z,56.43
2017-11-30T02:24:33.351Z,50.50
2017-11-30T02:27:00.816Z,48.00
2017-11-30T02:29:28.271Z,41.57
2017-11-30T02:31:55.748Z,50.40
2017-11-30T02:34:23.599Z,49.40
2017-11-30T02:36:51.056Z,44.10
2017-11-30T02:39:18.569Z,48.73
2017-11-30T02:41:46.043Z,39.73
2017-11-30T02:44:13.497Z,43.63
2017-11-30T02:46:41.129Z,41.30
2017-11-30T02:49:08.580Z,39.17
2017-11-30T02:51:36.034Z,48.77
2017-11-30T02:54:03.557Z,39.80
2017-11-30T02:56:31.139Z,37.13
2017-11-30T02:58:59.165Z,37.80
2017-11-30T03:01:26.615Z,35.47
2017-11-30T03:03:54.059Z,34.50
2017-11-30T03:06:21.514Z,37.40
2017-11-30T03:08:48.974Z,32.70
2017-11-30T03:11:16.446Z,29.70
2017-11-30T03:13:43.924Z,35.20
2017-11-30T03:16:11.385Z,31.37
2017-11-30T03:18:38.874Z,35.20
2017-11-30T03:21:06.328Z,33.93
2017-11-30T03:23:33.763Z,35.43
2017-11-30T03:26:01.206Z,36.70
2017-11-30T03:28:29.047Z,33.53
2017-11-30T03:30:56.490Z,35.73
2017-11-30T03:33:23.930Z,34.20
2017-11-30T03:35:51.371Z,35.60
2017-11-30T03:38:18.816Z,31.70
2017-11-30T03:40:46.278Z,37.43
2017-11-30T03:43:13.714Z,39.10
2017-11-30T03:45:41.166Z,39.30
2017-11-30T03:48:08.662Z,40.60
2017-11-30T03:50:36.142Z,40.47
2017-11-30T03:53:03.601Z,44.80
2017-11-30T03:55:31.055Z,34.70
2017-11-30T03:57:58.891Z,35.20
2017-11-30T04:00:26.381Z,38.40
2017-11-30T04:02:54.232Z,41.30
2017-11-30T04:05:21.669Z,43.50
2017-11-30T04:07:49.118Z,39.43
2017-11-30T04:10:17.511Z,43.83
2017-11-30T04:12:44.969Z,45.10
2017-11-30T04:15:12.432Z,49.60
2017-11-30T04:17:39.886Z,44.83
2017-11-30T04:20:07.341Z,44.70
2017-11-30T04:22:34.801Z,45.03
2017-11-30T04:25:02.260Z,42.53
2017-11-30T04:27:30.105Z,37.33
2017-11-30T04:29:57.564Z,43.97
2017-11-30T04:32:26.047Z,45.73
2017-11-30T04:34:53.503Z,39.60
2017-11-30T04:37:20.951Z,42.63
2017-11-30T04:39:48.411Z,44.03
2017-11-30T04:42:15.865Z,44.30
2017-11-30T04:44:43.312Z,43.40
2017-11-30T04:47:10.940Z,49.90
2017-11-30T04:49:38.393Z,45.50
2017-11-30T04:52:05.838Z,39.97
2017-11-30T04:54:33.298Z,33.40
2017-11-30T04:57:00.744Z,33.13
2017-11-30T04:59:28.224Z,39.03
2017-11-30T05:01:55.680Z,32.60
2017-11-30T05:04:23.136Z,33.87
2017-11-30T05:06:50.611Z,35.80
2017-11-30T05:09:18.075Z,36.17
2017-11-30T05:11:45.532Z,35.80
2017-11-30T05:14:12.979Z,32.47
2017-11-30T05:16:40.413Z,35.37
2017-11-30T05:19:07.865Z,40.43
2017-11-30T05:21:35.647Z,38.57
2017-11-30T05:24:03.106Z,43.90
2017-11-30T05:26:30.551Z,36.10
2017-11-30T05:28:58.006Z,34.70
2017-11-30T05:31:25.450Z,41.17
2017-11-30T05:33:52.913Z,48.20
2017-11-30T05:36:20.677Z,32.20
2017-11-30T05:38:48.122Z,44.60
2017-11-30T05:41:15.560Z,47.80
2017-11-30T05:43:43.047Z,41.10
2017-11-30T05:46:10.504Z,42.95
2017-11-30T05:48:37.950Z,43.80
2017-11-30T05:51:05.412Z,42.53
2017-11-30T05:53:32.870Z,39.33
2017-11-30T05:56:00.328Z,39.17
2017-11-30T05:58:27.877Z,35.20
2017-11-30T06:00:55.336Z,39.23
2017-11-30T06:03:22.808Z,41.63
2017-11-30T06:05:50.296Z,41.83
2017-11-30T06:08:17.752Z,41.53
2017-11-30T06:10:45.215Z,44.63
2017-11-30T06:13:12.663Z,43.73
2017-11-30T06:15:40.107Z,46.00
2017-11-30T06:18:07.582Z,41.90
2017-11-30T06:20:35.044Z,47.13
2017-11-30T06:23:02.519Z,46.17
2017-11-30T06:25:30.140Z,49.07
2017-11-30T06:27:57.563Z,52.77
2017-11-30T06:30:25.011Z,55.77
2017-11-30T06:32:52.571Z,51.00
2017-11-30T06:35:20.002Z,62.47
2017-11-30T06:37:47.447Z,49.55
2017-11-30T06:40:15.726Z,49.33
2017-11-30T06:42:43.187Z,55.33
2017-11-30T06:45:10.693Z,49.07
2017-11-30T06:47:39.433Z,49.42
2017-11-30T06:50:06.905Z,57.60
2017-11-30T06:52:34.360Z,52.78
2017-11-30T06:55:02.112Z,56.80
2017-11-30T06:57:29.556Z,58.85
2017-11-30T06:59:56.998Z,46.00
2017-11-30T07:02:24.443Z,64.90
2017-11-30T07:04:51.890Z,51.67
2017-11-30T07:07:19.373Z,56.80
2017-11-30T07:09:46.834Z,66.03
2017-11-30T07:12:14.278Z,56.30
2017-11-30T07:14:41.734Z,56.93
2017-11-30T07:17:09.179Z,65.20
2017-11-30T07:19:36.632Z,58.83
2017-11-30T07:22:04.170Z,51.95
2017-11-30T07:24:31.606Z,54.37
2017-11-30T07:26:59.461Z,56.10
2017-11-30T07:29:26.920Z,62.70
2017-11-30T07:31:54.394Z,48.60
2017-11-30T07:34:22.229Z,153.40
2017-11-30T07:36:49.692Z,60.97
2017-11-30T07:39:17.135Z,57.97
2017-11-30T07:41:44.584Z,53.10
2017-11-30T07:44:12.018Z,57.60
2017-11-30T07:46:39.489Z,51.60
2017-11-30T07:49:06.939Z,53.07
2017-11-30T07:51:34.373Z,52.80
2017-11-30T07:54:01.846Z,52.97
2017-11-30T07:56:29.285Z,59.53
2017-11-30T07:58:56.723Z,61.20
2017-11-30T08:01:24.262Z,50.50
2017-11-30T08:03:53.209Z,61.77
2017-11-30T08:06:20.660Z,60.75
2017-11-30T08:08:48.101Z,57.80
2017-11-30T08:11:16.467Z,57.57
2017-11-30T08:13:43.908Z,50.73
2017-11-30T08:16:11.340Z,47.17
2017-11-30T08:18:39.491Z,50.80
2017-11-30T08:21:06.929Z,57.97
2017-11-30T08:23:34.388Z,54.00
2017-11-30T08:26:02.754Z,54.97
2017-11-30T08:28:30.195Z,48.63
2017-11-30T08:30:57.691Z,48.90
2017-11-30T08:33:25.231Z,42.63
2017-11-30T08:35:52.671Z,48.17
2017-11-30T08:38:20.117Z,52.37
2017-11-30T08:40:47.570Z,40.80
2017-11-30T08:43:15.001Z,44.90
2017-11-30T08:45:42.451Z,46.70
2017-11-30T08:48:10.274Z,46.80
2017-11-30T08:50:37.732Z,47.73
2017-11-30T08:53:05.167Z,37.57
2017-11-30T08:55:32.614Z,36.60
2017-11-30T08:58:00.149Z,41.63
2017-11-30T09:00:27.586Z,41.67
2017-11-30T09:02:55.417Z,33.03
2017-11-30T09:05:22.886Z,35.60
2017-11-30T09:07:50.321Z,35.20
2017-11-30T09:10:17.750Z,28.87
2017-11-30T09:12:45.209Z,42.30
2017-11-30T09:15:12.646Z,40.70
2017-11-30T09:17:40.079Z,29.00
2017-11-30T09:20:07.935Z,39.80
2017-11-30T09:22:35.372Z,39.93
2017-11-30T09:25:02.849Z,35.80
2017-11-30T09:27:30.414Z,41.70
2017-11-30T09:29:58.245Z,77.03
2017-11-30T09:32:25.698Z,36.47
2017-11-30T09:34:53.149Z,36.20
2017-11-30T09:37:20.880Z,39.40
2017-11-30T09:39:48.322Z,35.67
2017-11-30T09:42:15.752Z,40.70
2017-11-30T09:44:44.085Z,41.83
2017-11-30T09:47:11.808Z,38.00
2017-11-30T09:49:39.628Z,38.20
2017-11-30T09:52:07.095Z,40.50
2017-11-30T09:54:34.517Z,39.63
2017-11-30T09:57:01.962Z,43.30
2017-11-30T09:59:29.517Z,37.30
2017-11-30T10:01:56.960Z,45.13
2017-11-30T10:04:24.385Z,39.47
2017-11-30T10:06:52.233Z,44.20
2017-11-30T10:09:19.674Z,38.60
2017-11-30T10:11:47.126Z,38.83
2017-11-30T10:14:14.587Z,37.40
2017-11-30T10:16:42.029Z,35.50
2017-11-30T10:19:10.121Z,34.27
2017-11-30T10:21:37.571Z,37.10
2017-11-30T10:24:04.999Z,36.77
2017-11-30T10:26:32.448Z,36.97
2017-11-30T10:29:00.218Z,30.53
2017-11-30T10:31:28.007Z,34.80
2017-11-30T10:33:55.426Z,36.50
2017-11-30T10:36:22.994Z,35.47
2017-11-30T10:38:50.430Z,32.63
2017-11-30T10:41:17.877Z,27.50
2017-11-30T10:43:45.351Z,28.17
2017-11-30T10:46:12.792Z,24.87
2017-11-30T10:48:40.239Z,29.83
2017-11-30T10:51:08.018Z,25.50
2017-11-30T10:53:35.521Z,28.20
2017-11-30T10:56:02.961Z,25.10
2017-11-30T10:58:30.818Z,31.53
2017-11-30T11:00:58.290Z,29.17
2017-11-30T11:03:25.741Z,29.20
2017-11-30T11:05:53.209Z,27.70
2017-11-30T11:08:20.797Z,30.70
2017-11-30T11:10:48.611Z,28.53
2017-11-30T11:13:16.047Z,27.83
2017-11-30T11:15:43.479Z,32.30
2017-11-30T11:18:10.913Z,27.17
2017-11-30T11:20:38.769Z,27.70
2017-11-30T11:23:06.210Z,34.03
2017-11-30T11:25:33.645Z,37.90
2017-11-30T11:28:01.102Z,34.87
2017-11-30T11:30:28.543Z,40.40
2017-11-30T11:32:56.087Z,40.20
2017-11-30T11:35:23.787Z,37.27
2017-11-30T11:37:51.230Z,31.83
2017-11-30T11:40:18.661Z,35.90
2017-11-30T11:42:47.183Z,35.60
2017-11-30T11:45:14.614Z,38.30
2017-11-30T11:47:42.055Z,37.13
2017-11-30T11:50:09.514Z,33.80
2017-11-30T11:52:36.957Z,40.60
2017-11-30T11:55:04.398Z,37.93
2017-11-30T11:57:31.829Z,45.00
2017-11-30T11:59:59.659Z,37.43
2017-11-30T12:02:27.227Z,41.13
2017-11-30T12:04:54.907Z,34.23
2017-11-30T12:07:22.757Z,30.73
2017-11-30T12:09:50.477Z,32.30
2017-11-30T12:12:17.919Z,42.17
2017-11-30T12:14:50.302Z,30.20
2017-11-30T12:17:30.053Z,33.73
2017-11-30T12:19:59.153Z,36.63
2017-11-30T12:22:26.593Z,38.77
2017-11-30T12:24:54.044Z,38.07
2017-11-30T12:27:21.474Z,41.33
2017-11-30T12:29:49.885Z,38.80
2017-11-30T12:32:17.317Z,33.70
2017-11-30T12:34:44.925Z,38.03
2017-11-30T12:37:12.429Z,36.57
2017-11-30T12:39:39.813Z,39.23
2017-11-30T12:42:07.243Z,40.80
2017-11-30T12:44:34.789Z,43.23
2017-11-30T12:47:02.332Z,38.27
2017-11-30T12:49:30.145Z,41.73
2017-11-30T12:51:57.912Z,39.20
2017-11-30T12:54:25.781Z,41.20
2017-11-30T12:56:53.225Z,46.23
2017-11-30T12:59:21.081Z,40.67
2017-11-30T13:01:48.520Z,38.20
2017-11-30T13:04:15.956Z,36.27
2017-11-30T13:06:43.820Z,33.87
2017-11-30T13:09:11.681Z,35.73
2017-11-30T13:11:39.528Z,43.83
2017-11-30T13:14:06.985Z,36.53
2017-11-30T13:16:34.420Z,40.67
2017-11-30T13:19:01.948Z,40.07
2017-11-30T13:21:29.403Z,39.30
2017-11-30T13:23:56.836Z,36.20
2017-11-30T13:26:24.268Z,37.50
2017-11-30T13:28:52.391Z,43.03
2017-11-30T13:31:19.825Z,46.90
2017-11-30T13:33:47.270Z,35.23
2017-11-30T13:36:15.094Z,34.10
2017-11-30T13:38:42.524Z,33.73
2017-11-30T13:41:09.960Z,37.23
2017-11-30T13:43:37.399Z,35.13
2017-11-30T13:46:04.882Z,31.30
2017-11-30T13:48:32.320Z,29.97
2017-11-30T13:50:59.744Z,31.83
2017-11-30T13:53:27.605Z,30.67
2017-11-30T13:55:55.523Z,39.27
2017-11-30T13:58:22.957Z,33.87
2017-11-30T14:00:50.404Z,31.40
2017-11-30T14:03:17.851Z,34.30
2017-11-30T14:05:45.287Z,33.87
2017-11-30T14:08:15.788Z,29.50
2017-11-30T14:10:43.225Z,30.80
2017-11-30T14:13:10.655Z,36.43
2017-11-30T14:15:38.516Z,28.27
2017-11-30T14:18:05.961Z,25.83
2017-11-30T14:20:33.792Z,32.43
2017-11-30T14:23:01.530Z,29.85
2017-11-30T14:25:28.971Z,27.83
2017-11-30T14:27:56.405Z,26.50
2017-11-30T14:30:24.095Z,26.97
2017-11-30T14:32:51.550Z,28.37
2017-11-30T14:35:18.984Z,28.60
2017-11-30T14:37:46.416Z,31.93
2017-11-30T14:40:14.283Z,34.40
2017-11-30T14:42:41.680Z,28.50
2017-11-30T14:45:09.132Z,24.37
2017-11-30T14:47:36.564Z,30.60
2017-11-30T14:50:03.997Z,20.90
2017-11-30T14:52:31.940Z,36.80
2017-11-30T14:54:59.374Z,32.07
2017-11-30T14:57:26.832Z,27.07
2017-11-30T14:59:54.299Z,26.03
2017-11-30T15:02:21.774Z,26.47
2017-11-30T15:04:49.209Z,24.10
2017-11-30T15:07:16.672Z,27.50
2017-11-30T15:09:44.102Z,22.70
2017-11-30T15:12:11.547Z,25.13
2017-11-30T15:14:39.006Z,24.93
2017-11-30T15:17:06.460Z,30.50
2017-11-30T15:19:33.901Z,30.80
2017-11-30T15:22:01.588Z,23.67
2017-11-30T15:24:29.026Z,25.30
2017-11-30T15:26:57.289Z,27.80
2017-11-30T15:29:24.728Z,27.23
2017-11-30T15:31:52.160Z,25.97
2017-11-30T15:34:19.990Z,38.53
2017-11-30T15:36:47.446Z,38.03
2017-11-30T15:39:14.883Z,76.73
2017-11-30T15:41:42.325Z,32.30
2017-11-30T15:44:10.108Z,30.83
2017-11-30T15:46:37.545Z,29.03
2017-11-30T15:49:04.977Z,26.00
2017-11-30T15:51:32.811Z,32.00
2017-11-30T15:54:00.245Z,24.93
2017-11-30T15:56:27.688Z,27.50
2017-11-30T15:58:55.157Z,30.10
2017-11-30T16:01:22.594Z,24.80
2017-11-30T16:03:50.023Z,32.60
2017-11-30T16:06:17.482Z,27.00
2017-11-30T16:08:44.935Z,29.53
2017-11-30T16:11:12.403Z,26.47
2017-11-30T16:13:39.792Z,28.70
2017-11-30T16:16:07.222Z,27.00
2017-11-30T16:18:34.647Z,32.13
2017-11-30T16:21:02.488Z,30.60
2017-11-30T16:23:29.916Z,30.67
2017-11-30T16:25:57.360Z,32.13
2017-11-30T16:28:25.023Z,39.10
2017-11-30T16:30:52.452Z,31.90
2017-11-30T16:33:19.884Z,33.20
2017-11-30T16:35:47.892Z,30.57
2017-11-30T16:38:15.328Z,30.93
2017-11-30T16:40:42.756Z,25.37
2017-11-30T16:43:10.620Z,28.17
2017-11-30T16:45:38.444Z,29.63
2017-11-30T16:48:05.880Z,27.50
2017-11-30T16:50:33.429Z,29.83
2017-11-30T16:53:00.857Z,28.40
2017-11-30T16:55:28.693Z,28.60
2017-11-30T16:57:56.433Z,23.50
2017-11-30T17:00:23.857Z,25.00
2017-11-30T17:02:51.283Z,23.93
2017-11-30T17:05:19.133Z,29.30
2017-11-30T17:07:46.565Z,28.37
2017-11-30T17:10:13.992Z,25.20
2017-11-30T17:12:41.456Z,28.57
2017-11-30T17:15:08.886Z,29.40
2017-11-30T17:17:36.316Z,32.77
2017-11-30T17:20:04.180Z,41.43
2017-11-30T17:22:31.607Z,26.70
2017-11-30T17:24:59.041Z,19.60
2017-11-30T17:27:26.490Z,20.90
2017-11-30T17:29:53.923Z,25.97
2017-11-30T17:32:21.794Z,25.40
2017-11-30T17:34:49.694Z,29.83
2017-11-30T17:37:17.116Z,37.20
2017-11-30T17:39:44.545Z,25.17
2017-11-30T17:42:12.382Z,28.40
2017-11-30T17:44:39.811Z,27.33
2017-11-30T17:47:07.377Z,29.47
2017-11-30T17:49:34.824Z,35.83
2017-11-30T17:52:02.297Z,39.27
2017-11-30T17:54:29.735Z,40.33
2017-11-30T17:56:57.159Z,32.83
2017-11-30T17:59:24.595Z,43.50
2017-11-30T18:01:52.032Z,27.87
2017-11-30T18:04:19.492Z,32.73
2017-11-30T18:06:46.941Z,33.17
2017-11-30T18:09:14.368Z,62.53
2017-11-30T18:11:42.060Z,24.93
2017-11-30T18:14:09.557Z,25.13
2017-11-30T18:16:36.947Z,27.03
2017-11-30T18:19:04.376Z,31.00
2017-11-30T18:21:32.060Z,30.53
2017-11-30T18:23:59.488Z,30.50
2017-11-30T18:26:26.916Z,29.37
2017-11-30T18:28:54.756Z,29.30
2017-11-30T18:31:22.243Z,32.00
2017-11-30T18:33:50.064Z,22.60
2017-11-30T18:36:17.508Z,25.43
2017-11-30T18:38:45.114Z,31.20
2017-11-30T18:41:12.533Z,29.63
2017-11-30T18:43:40.002Z,33.90
2017-11-30T18:46:07.437Z,27.77
2017-11-30T18:48:34.870Z,30.90
2017-11-30T18:51:02.329Z,29.83
2017-11-30T18:53:29.761Z,33.03
2017-11-30T18:55:57.193Z,32.20
2017-11-30T18:58:25.210Z,32.43
2017-11-30T19:00:52.636Z,26.60
2017-11-30T19:03:20.066Z,29.30
2017-11-30T19:05:48.192Z,28.80
2017-11-30T19:08:15.622Z,40.60
2017-11-30T19:10:43.412Z,31.40
2017-11-30T19:13:10.844Z,31.20
2017-11-30T19:15:38.272Z,34.73
2017-11-30T19:18:07.005Z,35.30
2017-11-30T19:20:34.448Z,33.40
2017-11-30T19:23:01.893Z,32.97
2017-11-30T19:25:29.683Z,39.60
2017-11-30T19:27:57.124Z,33.50
2017-11-30T19:30:24.572Z,32.03
2017-11-30T19:32:52.002Z,36.33
2017-11-30T19:35:19.817Z,33.77
2017-11-30T19:37:47.284Z,36.53
2017-11-30T19:40:14.711Z,35.50
2017-11-30T19:42:42.149Z,45.50
2017-11-30T19:45:09.628Z,42.40
2017-11-30T19:47:37.080Z,34.47
2017-11-30T19:50:04.538Z,31.60
2017-11-30T19:52:31.996Z,31.23
2017-11-30T19:54:59.467Z,32.33
2017-11-30T19:57:27.095Z,38.53
2017-11-30T19:59:54.560Z,36.47
2017-11-30T20:02:22.009Z,41.60
2017-11-30T20:04:49.480Z,46.27
2017-11-30T20:07:16.916Z,34.00
2017-11-30T20:09:44.412Z,33.90
2017-11-30T20:12:11.866Z,109.00
2017-11-30T20:14:39.519Z,74.50
2017-11-30T20:17:06.977Z,42.87
2017-11-30T20:19:34.454Z,35.77
2017-11-30T20:22:02.013Z,38.53
2017-11-30T20:24:29.472Z,46.23
2017-11-30T20:26:56.929Z,62.80
2017-11-30T20:29:24.778Z,53.13
2017-11-30T20:31:52.232Z,40.10
2017-11-30T20:34:19.664Z,35.87
2017-11-30T20:36:47.116Z,37.80
2017-11-30T20:39:14.541Z,38.43
2017-11-30T20:41:41.976Z,34.53
2017-11-30T20:44:09.844Z,38.43
2017-11-30T20:46:37.679Z,41.00
2017-11-30T20:49:05.163Z,31.10
2017-11-30T20:51:33.024Z,39.03
2017-11-30T20:54:00.868Z,36.67
2017-11-30T20:56:28.313Z,33.07
2017-11-30T20:58:56.140Z,37.03
2017-11-30T21:01:23.575Z,32.73
2017-11-30T21:03:51.012Z,35.03
2017-11-30T21:06:19.074Z,35.53
2017-11-30T21:08:46.487Z,32.60
2017-11-30T21:11:13.953Z,35.90
2017-11-30T21:13:41.400Z,36.87
2017-11-30T21:16:08.831Z,38.87
2017-11-30T21:18:36.257Z,37.37
2017-11-30T21:21:04.198Z,37.17
2017-11-30T21:23:31.640Z,37.60
2017-11-30T21:25:59.073Z,37.70
2017-11-30T21:28:26.836Z,40.27
2017-11-30T21:30:54.265Z,55.90
2017-11-30T21:33:21.700Z,35.10
2017-11-30T21:35:49.525Z,36.03
2017-11-30T21:38:16.965Z,32.33
2017-11-30T21:40:44.623Z,33.30
2017-11-30T21:43:12.057Z,33.63
2017-11-30T21:45:39.501Z,33.37
2017-11-30T21:48:07.335Z,35.07
2017-11-30T21:50:34.772Z,42.10
2017-11-30T21:53:02.208Z,31.80
2017-11-30T21:55:29.688Z,37.63
2017-11-30T21:57:57.121Z,39.67
2017-11-30T22:00:24.552Z,48.53
2017-11-30T22:02:51.992Z,127.67
2017-11-30T22:05:19.821Z,156.10
2017-11-30T22:07:47.264Z,126.87
2017-11-30T22:10:14.901Z,132.70
2017-11-30T22:12:42.337Z,76.27
2017-11-30T22:15:09.759Z,40.80
2017-11-30T22:17:37.603Z,51.23
2017-11-30T22:20:05.032Z,49.17
2017-11-30T22:22:32.475Z,43.27
2017-11-30T22:24:59.932Z,31.30
2017-11-30T22:27:27.360Z,37.63
2017-11-30T22:29:55.180Z,35.87
2017-11-30T22:32:22.631Z,39.30
2017-11-30T22:34:50.068Z,35.93
2017-11-30T22:37:17.519Z,38.00
2017-11-30T22:39:44.971Z,36.23
2017-11-30T22:42:12.407Z,40.90
2017-11-30T22:44:39.839Z,42.37
2017-11-30T22:47:07.700Z,41.93
2017-11-30T22:49:35.524Z,36.33
2017-11-30T22:52:02.986Z,35.87
2017-11-30T22:54:30.449Z,49.13
2017-11-30T22:56:57.882Z,63.37
2017-11-30T22:59:25.311Z,46.17
2017-11-30T23:01:52.799Z,35.83
2017-11-30T23:04:20.491Z,37.93
2017-11-30T23:06:47.932Z,34.97
2017-11-30T23:09:15.388Z,48.33
2017-11-30T23:11:42.813Z,49.67
2017-11-30T23:14:10.260Z,44.57
2017-11-30T23:16:37.696Z,40.20
2017-11-30T23:19:05.124Z,41.33
2017-11-30T23:21:32.976Z,43.47
2017-11-30T23:24:00.413Z,40.73
2017-11-30T23:26:27.846Z,37.27
2017-11-30T23:28:55.620Z,38.20
2017-11-30T23:31:23.048Z,40.60
2017-11-30T23:33:50.476Z,35.83
2017-11-30T23:36:18.591Z,40.37
2017-11-30T23:38:46.019Z,42.63
2017-11-30T23:41:13.499Z,36.73
2017-11-30T23:43:41.268Z,32.97
2017-11-30T23:46:08.713Z,120.27
2017-11-30T23:48:36.136Z,85.67
2017-11-30T23:51:03.964Z,50.13
2017-11-30T23:53:31.430Z,38.03
2017-11-30T23:55:58.849Z,38.80
2017-11-30T23:58:26.342Z,38.40
